Terminal Aerodrome Forecast
Issued by NWS

Home | Current Version | Previous Version | Text Only | Print | Product List | Glossary On
Versions: 1 2 3 4 5 6 7 8
000
FTUS44 KEPZ 271700 RRA
TAFDMN
TAF
KDMN 271752Z 2718/2818 04006KT P6SM BKN030 BKN060
     FM272000 03010KT P6SM SCT050
     FM280200 28005KT P6SM SKC
     FM281400 25005KT P6SM SCT200=

USA.gov is the U.S. government's official web portal to all federal, state and local government web resources and services.